createdAt,value
2024-02-17T00:00:22.757Z,-7.79
2024-02-17T00:02:50.333Z,-7.82
2024-02-17T00:05:18.005Z,-7.83
2024-02-17T00:07:45.586Z,-7.85
2024-02-17T00:10:13.111Z,-7.89
2024-02-17T00:12:40.702Z,-7.92
2024-02-17T00:15:08.582Z,-7.95
2024-02-17T00:17:36.107Z,-7.99
2024-02-17T00:20:04.887Z,-8.02
2024-02-17T00:22:32.554Z,-8.05
2024-02-17T00:24:59.984Z,-8.09
2024-02-17T00:27:27.503Z,-8.11
2024-02-17T00:29:54.951Z,-8.14
2024-02-17T00:32:22.446Z,-8.17
2024-02-17T00:34:49.961Z,-8.19
2024-02-17T00:37:17.642Z,-8.21
2024-02-17T00:39:45.182Z,-8.24
2024-02-17T00:42:12.714Z,-8.27
2024-02-17T00:44:40.173Z,-8.30
2024-02-17T00:47:07.664Z,-8.33
2024-02-17T00:49:35.246Z,-8.35
2024-02-17T00:52:02.762Z,-8.35
2024-02-17T00:54:30.454Z,-8.38
2024-02-17T00:56:57.999Z,-8.38
2024-02-17T00:59:25.532Z,-8.39
2024-02-17T01:01:52.998Z,-8.41
2024-02-17T01:04:20.560Z,-8.42
2024-02-17T01:06:48.120Z,-8.44
2024-02-17T01:09:18.105Z,-8.46
2024-02-17T01:11:45.750Z,-8.47
2024-02-17T01:14:13.317Z,-8.48
2024-02-17T01:16:41.646Z,-8.51
2024-02-17T01:19:09.328Z,-8.53
2024-02-17T01:21:36.945Z,-8.55
2024-02-17T01:24:05.644Z,-8.57
2024-02-17T01:26:33.172Z,-8.57
2024-02-17T01:29:00.661Z,-8.59
2024-02-17T01:31:28.143Z,-8.61
2024-02-17T01:33:55.666Z,-8.62
2024-02-17T01:36:23.195Z,-8.61
2024-02-17T01:38:50.678Z,-8.63
2024-02-17T01:41:18.202Z,-8.66
2024-02-17T01:43:45.722Z,-8.69
2024-02-17T01:46:13.562Z,-8.71
2024-02-17T01:48:41.421Z,-8.70
2024-02-17T01:51:11.313Z,-8.72
2024-02-17T01:53:39.599Z,-8.74
2024-02-17T01:56:07.512Z,-8.73
2024-02-17T01:58:34.988Z,-8.74
2024-02-17T02:01:02.712Z,-8.75
2024-02-17T02:03:30.421Z,-8.78
2024-02-17T02:05:58.487Z,-8.80
2024-02-17T02:08:25.969Z,-8.82
2024-02-17T02:10:56.029Z,-8.82
2024-02-17T02:13:23.713Z,-8.83
2024-02-17T02:15:54.491Z,-8.84
2024-02-17T02:18:23.365Z,-8.85
2024-02-17T02:20:51.312Z,-8.87
2024-02-17T02:23:18.860Z,-8.87
2024-02-17T02:25:53.189Z,-8.88
2024-02-17T02:28:20.735Z,-8.88
2024-02-17T02:30:48.484Z,-8.89
2024-02-17T02:33:16.473Z,-8.90
2024-02-17T02:35:44.133Z,-8.91
2024-02-17T02:38:11.616Z,-8.92
2024-02-17T02:40:39.133Z,-8.91
2024-02-17T02:43:06.587Z,-8.90
2024-02-17T02:45:35.104Z,-8.92
2024-02-17T02:48:02.905Z,-8.92
2024-02-17T02:50:30.519Z,-8.92
2024-02-17T02:52:58.060Z,-8.94
2024-02-17T02:55:27.951Z,-8.94
2024-02-17T02:57:55.472Z,-8.94
2024-02-17T03:00:23.167Z,-8.96
2024-02-17T03:02:50.686Z,-8.98
2024-02-17T03:05:18.122Z,-8.99
2024-02-17T03:07:45.628Z,-9.01
2024-02-17T03:10:13.156Z,-9.01
2024-02-17T03:12:40.693Z,-9.01
2024-02-17T03:15:08.526Z,-9.01
2024-02-17T03:17:37.540Z,-9.02
2024-02-17T03:20:08.105Z,-9.02
2024-02-17T03:22:36.185Z,-9.03
2024-02-17T03:25:03.804Z,-9.05
2024-02-17T03:27:31.596Z,-9.06
2024-02-17T03:29:59.152Z,-9.07
2024-02-17T03:32:27.776Z,-9.07
2024-02-17T03:34:55.555Z,-9.08
2024-02-17T03:37:23.203Z,-9.09
2024-02-17T03:39:51.052Z,-9.11
2024-02-17T03:42:18.908Z,-9.12
2024-02-17T03:44:46.490Z,-9.14
2024-02-17T03:47:14.095Z,-9.16
2024-02-17T03:49:41.809Z,-9.18
2024-02-17T03:52:09.456Z,-9.18
2024-02-17T03:54:36.964Z,-9.19
2024-02-17T03:57:05.522Z,-9.20
2024-02-17T03:59:33.109Z,-9.20
2024-02-17T04:02:00.895Z,-9.20
2024-02-17T04:04:29.239Z,-9.20
2024-02-17T04:06:56.970Z,-9.20
2024-02-17T04:09:24.600Z,-9.20
2024-02-17T04:11:53.226Z,-9.19
2024-02-17T04:14:20.814Z,-9.19
2024-02-17T04:16:48.374Z,-9.20
2024-02-17T04:19:16.203Z,-9.20
2024-02-17T04:21:45.083Z,-9.20
2024-02-17T04:24:12.908Z,-9.19
2024-02-17T04:26:40.409Z,-9.20
2024-02-17T04:29:07.878Z,-9.20
2024-02-17T04:31:35.446Z,-9.20
2024-02-17T04:34:03.060Z,-9.19
2024-02-17T04:36:30.913Z,-9.18
2024-02-17T04:38:58.421Z,-9.17
2024-02-17T04:41:25.944Z,-9.16
2024-02-17T04:43:53.437Z,-9.14
2024-02-17T04:46:20.934Z,-9.12
2024-02-17T04:48:48.481Z,-9.10
2024-02-17T04:51:15.995Z,-9.07
2024-02-17T04:53:43.499Z,-9.01
2024-02-17T04:56:10.923Z,-8.96
2024-02-17T04:58:38.853Z,-8.89
2024-02-17T05:01:06.635Z,-8.81
2024-02-17T05:03:34.227Z,-8.73
2024-02-17T05:06:01.758Z,-8.66
2024-02-17T05:08:29.377Z,-8.58
2024-02-17T05:10:57.169Z,-8.49
2024-02-17T05:13:24.760Z,-8.40
2024-02-17T05:15:52.369Z,-8.33
2024-02-17T05:18:20.026Z,-8.23
2024-02-17T05:20:48.862Z,-8.14
2024-02-17T05:23:16.450Z,-8.05
2024-02-17T05:25:43.871Z,-7.96
2024-02-17T05:28:11.375Z,-7.86
2024-02-17T05:30:38.902Z,-7.75
2024-02-17T05:33:06.542Z,-7.63
2024-02-17T05:35:34.113Z,-7.51
2024-02-17T05:38:01.567Z,-7.39
2024-02-17T05:40:29.044Z,-7.26
2024-02-17T05:42:56.817Z,-7.07
2024-02-17T05:45:24.410Z,-6.84
2024-02-17T05:47:51.910Z,-6.67
2024-02-17T05:50:19.428Z,-6.47
2024-02-17T05:52:50.308Z,-6.17
2024-02-17T05:55:17.893Z,-5.72
2024-02-17T05:57:45.478Z,-5.22
2024-02-17T06:00:13.259Z,-4.74
2024-02-17T06:02:40.714Z,-4.32
2024-02-17T06:05:08.831Z,-3.93
2024-02-17T06:07:37.183Z,-3.52
2024-02-17T06:10:05.901Z,-3.10
2024-02-17T06:12:33.992Z,-2.79
2024-02-17T06:15:01.585Z,-2.52
2024-02-17T06:17:29.589Z,-2.31
2024-02-17T06:20:15.807Z,-2.04
2024-02-17T06:22:43.258Z,-1.94
2024-02-17T06:25:11.024Z,-1.85
2024-02-17T06:27:38.556Z,-1.82
2024-02-17T06:30:06.327Z,-1.83
2024-02-17T06:32:34.008Z,-1.88
2024-02-17T06:35:01.527Z,-1.87
2024-02-17T06:37:29.473Z,-1.76
2024-02-17T06:39:57.014Z,-1.68
2024-02-17T06:42:24.633Z,-1.71
2024-02-17T06:44:52.107Z,-1.65
2024-02-17T06:47:21.259Z,-1.83
2024-02-17T06:49:48.766Z,-2.32
2024-02-17T06:52:16.299Z,-2.70
2024-02-17T06:54:43.858Z,-3.06
2024-02-17T06:57:11.408Z,-3.45
2024-02-17T06:59:39.190Z,-3.70
2024-02-17T07:02:06.699Z,-3.88
2024-02-17T07:04:34.631Z,-4.08
2024-02-17T07:07:02.243Z,-4.24
2024-02-17T07:09:30.988Z,-4.35
2024-02-17T07:11:59.004Z,-4.38
2024-02-17T07:14:26.495Z,-4.45
2024-02-17T07:16:55.969Z,-4.48
2024-02-17T07:19:23.487Z,-4.38
2024-02-17T07:21:51.127Z,-4.28
2024-02-17T07:24:18.735Z,-4.25
2024-02-17T07:26:46.263Z,-4.27
2024-02-17T07:29:13.785Z,-4.32
2024-02-17T07:31:42.184Z,-4.41
2024-02-17T07:34:10.254Z,-4.47
2024-02-17T07:36:38.515Z,-4.43
2024-02-17T07:39:06.762Z,-4.41
2024-02-17T07:41:34.382Z,-4.36
2024-02-17T07:44:01.811Z,-4.36
2024-02-17T07:46:29.328Z,-4.28
2024-02-17T07:48:57.148Z,-4.17
2024-02-17T07:51:24.753Z,-4.12
2024-02-17T07:53:52.195Z,-4.14
2024-02-17T07:56:19.694Z,-4.16
2024-02-17T07:58:47.124Z,-4.10
2024-02-17T08:01:14.796Z,-3.96
2024-02-17T08:03:43.037Z,-3.88
2024-02-17T08:06:10.769Z,-3.88
2024-02-17T08:08:38.358Z,-3.81
2024-02-17T08:11:05.936Z,-3.70
2024-02-17T08:13:33.400Z,-3.59
2024-02-17T08:16:01.890Z,-3.54
2024-02-17T08:18:29.982Z,-3.44
2024-02-17T08:20:59.363Z,-3.34
2024-02-17T08:23:28.166Z,-3.24
2024-02-17T08:25:55.995Z,-3.23
2024-02-17T08:28:23.442Z,-3.17
2024-02-17T08:30:51.443Z,-3.16
2024-02-17T08:33:19.167Z,-3.08
2024-02-17T08:35:46.762Z,-3.00
2024-02-17T08:38:14.267Z,-2.99
2024-02-17T08:40:41.749Z,-2.99
2024-02-17T08:43:09.525Z,-2.99
2024-02-17T08:45:37.026Z,-2.94
2024-02-17T08:48:04.738Z,-2.81
2024-02-17T08:50:32.200Z,-2.70
2024-02-17T08:52:59.681Z,-2.56
2024-02-17T08:55:27.149Z,-2.38
2024-02-17T08:57:54.641Z,-2.27
2024-02-17T09:00:24.472Z,-2.09
2024-02-17T09:02:52.113Z,-1.87
2024-02-17T09:05:19.559Z,-1.64
2024-02-17T09:07:47.117Z,-1.35
2024-02-17T09:10:16.959Z,-1.13
2024-02-17T09:12:44.581Z,-0.98
2024-02-17T09:15:12.220Z,-0.84
2024-02-17T09:17:41.962Z,-0.71
2024-02-17T09:20:11.350Z,-0.54
2024-02-17T09:22:39.000Z,-0.39
2024-02-17T09:25:06.853Z,-0.30
2024-02-17T09:27:34.303Z,-0.12
2024-02-17T09:30:01.757Z,-0.06
2024-02-17T09:32:29.249Z,-0.29
2024-02-17T09:34:57.215Z,-0.36
2024-02-17T09:37:25.025Z,-0.08
2024-02-17T09:39:52.622Z,0.08
2024-02-17T09:42:20.271Z,0.03
2024-02-17T09:44:49.407Z,0.16
2024-02-17T09:47:17.237Z,0.34
2024-02-17T09:49:44.891Z,0.42
2024-02-17T09:52:12.940Z,0.46
2024-02-17T09:54:40.546Z,0.44
2024-02-17T09:57:08.319Z,0.44
2024-02-17T09:59:35.821Z,0.43
2024-02-17T10:02:04.100Z,0.44
2024-02-17T10:04:31.756Z,0.46
2024-02-17T10:07:00.924Z,0.54
2024-02-17T10:09:30.861Z,0.66
2024-02-17T10:12:00.219Z,0.71
2024-02-17T10:14:30.847Z,0.75
2024-02-17T10:17:00.230Z,0.85
2024-02-17T10:19:29.585Z,0.97
2024-02-17T10:21:57.297Z,0.92
2024-02-17T10:24:24.941Z,0.93
2024-02-17T10:26:55.758Z,1.02
2024-02-17T10:29:24.064Z,1.12
2024-02-17T10:31:51.613Z,1.31
2024-02-17T10:34:19.453Z,1.35
2024-02-17T10:36:47.104Z,1.32
2024-02-17T10:39:15.010Z,1.26
2024-02-17T10:41:43.993Z,1.44
2024-02-17T10:44:12.339Z,1.47
2024-02-17T10:46:39.941Z,1.58
2024-02-17T10:49:19.200Z,1.69
2024-02-17T10:51:48.783Z,1.72
2024-02-17T10:54:17.272Z,1.72
2024-02-17T10:56:44.874Z,1.74
2024-02-17T10:59:12.292Z,1.74
2024-02-17T11:01:39.813Z,1.78
2024-02-17T11:04:07.504Z,1.85
2024-02-17T11:06:35.832Z,1.88
2024-02-17T11:09:03.312Z,1.91
2024-02-17T11:11:34.250Z,1.93
2024-02-17T11:14:21.712Z,2.00
2024-02-17T11:16:49.246Z,2.11
2024-02-17T11:19:20.549Z,2.18
2024-02-17T11:21:50.140Z,2.20
2024-02-17T11:24:19.868Z,2.23
2024-02-17T11:26:47.600Z,2.28
2024-02-17T11:29:34.540Z,2.30
2024-02-17T11:32:02.576Z,2.39
2024-02-17T11:34:30.381Z,2.43
2024-02-17T11:36:58.603Z,2.48
2024-02-17T11:39:26.880Z,2.52
2024-02-17T11:41:54.513Z,2.59
2024-02-17T11:44:22.079Z,2.71
2024-02-17T11:46:49.690Z,2.83
2024-02-17T11:49:28.059Z,2.85
2024-02-17T11:51:59.418Z,2.81
2024-02-17T11:54:27.231Z,2.80
2024-02-17T11:56:54.856Z,2.79
2024-02-17T11:59:22.859Z,2.76
2024-02-17T12:01:51.851Z,2.76
2024-02-17T12:04:19.770Z,2.75
2024-02-17T12:06:51.398Z,2.71
2024-02-17T12:09:19.240Z,2.67
2024-02-17T12:11:47.233Z,2.70
2024-02-17T12:14:18.121Z,2.70
2024-02-17T12:16:45.890Z,2.70
2024-02-17T12:19:14.503Z,2.67
2024-02-17T12:21:42.128Z,2.64
2024-02-17T12:24:09.735Z,2.58
2024-02-17T12:26:45.409Z,2.55
2024-02-17T12:29:15.455Z,2.48
2024-02-17T12:31:43.123Z,2.46
2024-02-17T12:34:24.960Z,2.42
2024-02-17T12:36:53.116Z,2.38
2024-02-17T12:39:20.625Z,2.39
2024-02-17T12:41:48.102Z,2.44
2024-02-17T12:44:15.632Z,2.49
2024-02-17T12:46:43.090Z,2.47
2024-02-17T12:49:10.910Z,2.43
2024-02-17T12:51:40.715Z,2.39
2024-02-17T12:54:08.378Z,2.35
2024-02-17T12:56:36.674Z,2.34
2024-02-17T12:59:04.183Z,2.33
2024-02-17T13:01:32.087Z,2.29
2024-02-17T13:04:00.490Z,2.26
2024-02-17T13:06:28.192Z,2.26
2024-02-17T13:08:57.724Z,2.22
2024-02-17T13:11:27.813Z,2.18
2024-02-17T13:13:55.737Z,2.13
2024-02-17T13:16:23.194Z,2.08
2024-02-17T13:18:51.058Z,2.01
2024-02-17T13:21:19.581Z,2.00
2024-02-17T13:23:47.094Z,1.96
2024-02-17T13:26:16.449Z,1.88
2024-02-17T13:28:44.259Z,1.80
2024-02-17T13:31:12.446Z,1.70
2024-02-17T13:33:40.117Z,1.65
2024-02-17T13:36:07.773Z,1.62
2024-02-17T13:38:35.259Z,1.58
2024-02-17T13:41:02.789Z,1.52
2024-02-17T13:43:30.239Z,1.45
2024-02-17T13:45:58.851Z,1.39
2024-02-17T13:48:26.491Z,1.32
2024-02-17T13:50:54.066Z,1.24
2024-02-17T13:53:21.572Z,1.14
2024-02-17T13:55:49.146Z,1.07
2024-02-17T13:58:16.663Z,0.99
2024-02-17T14:00:44.443Z,0.91
2024-02-17T14:03:12.705Z,0.83
2024-02-17T14:05:40.639Z,0.73
2024-02-17T14:08:08.122Z,0.65
2024-02-17T14:10:35.656Z,0.57
2024-02-17T14:13:03.475Z,0.46
2024-02-17T14:15:31.270Z,0.36
2024-02-17T14:17:59.050Z,0.27
2024-02-17T14:20:26.839Z,0.18
2024-02-17T14:22:54.415Z,0.09
2024-02-17T14:25:22.150Z,-0.00
2024-02-17T14:27:49.965Z,-0.09
2024-02-17T14:30:22.690Z,-0.17
2024-02-17T14:32:53.169Z,-0.25
2024-02-17T14:35:20.829Z,-0.34
2024-02-17T14:37:49.770Z,-0.43
2024-02-17T14:40:17.889Z,-0.53
2024-02-17T14:42:47.027Z,-0.63
2024-02-17T14:45:15.738Z,-0.75
2024-02-17T14:47:43.722Z,-0.86
2024-02-17T14:50:11.827Z,-0.98
2024-02-17T14:52:39.963Z,-1.09
2024-02-17T14:55:07.900Z,-1.15
2024-02-17T14:57:35.635Z,-1.24
2024-02-17T15:00:03.537Z,-1.34
2024-02-17T15:02:31.222Z,-1.41
2024-02-17T15:04:58.890Z,-1.51
2024-02-17T15:07:26.832Z,-1.60
2024-02-17T15:09:56.387Z,-1.68
2024-02-17T15:12:26.897Z,-1.75
2024-02-17T15:14:57.459Z,-1.81
2024-02-17T15:17:31.174Z,-1.87
2024-02-17T15:19:59.472Z,-1.92
2024-02-17T15:22:27.110Z,-1.98
2024-02-17T15:24:55.041Z,-2.04
2024-02-17T15:27:22.784Z,-2.09
2024-02-17T15:29:50.442Z,-2.16
2024-02-17T15:32:18.131Z,-2.22
2024-02-17T15:34:45.978Z,-2.27
2024-02-17T15:37:15.116Z,-2.31
2024-02-17T15:39:43.790Z,-2.38
2024-02-17T15:42:11.573Z,-2.43
2024-02-17T15:44:39.367Z,-2.46
2024-02-17T15:47:07.096Z,-2.50
2024-02-17T15:49:37.880Z,-2.56
2024-02-17T15:52:06.473Z,-2.62
2024-02-17T15:54:34.115Z,-2.67
2024-02-17T15:57:01.748Z,-2.72
2024-02-17T15:59:29.223Z,-2.77
2024-02-17T16:01:57.389Z,-2.83
2024-02-17T16:04:25.333Z,-2.87
2024-02-17T16:06:53.068Z,-2.92
2024-02-17T16:09:22.580Z,-2.97
2024-02-17T16:11:50.150Z,-2.99
2024-02-17T16:14:17.642Z,-3.04
2024-02-17T16:16:45.138Z,-3.09
2024-02-17T16:19:12.966Z,-3.12
2024-02-17T16:21:40.752Z,-3.15
2024-02-17T16:24:08.417Z,-3.17
2024-02-17T16:26:40.660Z,-3.20
2024-02-17T16:29:08.429Z,-3.21
2024-02-17T16:31:35.992Z,-3.25
2024-02-17T16:34:04.781Z,-3.32
2024-02-17T16:36:32.609Z,-3.35
2024-02-17T16:39:08.991Z,-3.38
2024-02-17T16:41:38.406Z,-3.42
2024-02-17T16:44:06.117Z,-3.43
2024-02-17T16:46:33.737Z,-3.46
2024-02-17T16:49:01.469Z,-3.50
2024-02-17T16:51:31.382Z,-3.52
2024-02-17T16:54:00.448Z,-3.54
2024-02-17T16:56:27.989Z,-3.58
2024-02-17T16:58:55.517Z,-3.63
2024-02-17T17:01:23.264Z,-3.67
2024-02-17T17:03:50.933Z,-3.68
2024-02-17T17:06:18.766Z,-3.68
2024-02-17T17:08:47.584Z,-3.69
2024-02-17T17:11:16.178Z,-3.71
2024-02-17T17:13:43.772Z,-3.74
2024-02-17T17:16:11.420Z,-3.77
2024-02-17T17:18:39.122Z,-3.81
2024-02-17T17:21:06.789Z,-3.82
2024-02-17T17:23:34.658Z,-3.83
2024-02-17T17:26:02.308Z,-3.82
2024-02-17T17:28:29.948Z,-3.84
2024-02-17T17:30:57.650Z,-3.87
2024-02-17T17:33:25.564Z,-3.92
2024-02-17T17:35:53.299Z,-3.97
2024-02-17T17:38:20.971Z,-4.01
2024-02-17T17:40:49.682Z,-4.02
2024-02-17T17:43:17.384Z,-4.04
2024-02-17T17:45:46.076Z,-4.08
2024-02-17T17:48:13.800Z,-4.12
2024-02-17T17:50:43.228Z,-4.14
2024-02-17T17:53:16.291Z,-4.18
2024-02-17T17:55:44.115Z,-4.20
2024-02-17T17:58:11.774Z,-4.24
2024-02-17T18:00:39.715Z,-4.27
2024-02-17T18:03:07.449Z,-4.31
2024-02-17T18:05:35.695Z,-4.35
2024-02-17T18:08:03.350Z,-4.38
2024-02-17T18:10:32.894Z,-4.41
2024-02-17T18:13:01.978Z,-4.44
2024-02-17T18:15:29.681Z,-4.46
2024-02-17T18:17:58.306Z,-4.48
2024-02-17T18:20:27.451Z,-4.50
2024-02-17T18:22:55.422Z,-4.52
2024-02-17T18:25:22.946Z,-4.53
2024-02-17T18:27:50.693Z,-4.54
2024-02-17T18:30:18.894Z,-4.57
2024-02-17T18:32:46.529Z,-4.59
2024-02-17T18:35:14.139Z,-4.61
2024-02-17T18:37:41.829Z,-4.62
2024-02-17T18:40:09.721Z,-4.66
2024-02-17T18:42:37.326Z,-4.69
2024-02-17T18:45:05.114Z,-4.74
2024-02-17T18:47:32.741Z,-4.77
2024-02-17T18:50:00.480Z,-4.82
2024-02-17T18:52:30.016Z,-4.86
2024-02-17T18:54:57.759Z,-4.88
2024-02-17T18:57:25.430Z,-4.93
2024-02-17T18:59:53.886Z,-4.94
2024-02-17T19:02:21.514Z,-4.96
2024-02-17T19:04:49.170Z,-4.99
2024-02-17T19:07:16.902Z,-5.00
2024-02-17T19:09:44.716Z,-5.02
2024-02-17T19:12:13.437Z,-5.03
2024-02-17T19:14:41.101Z,-5.02
2024-02-17T19:17:08.667Z,-5.05
2024-02-17T19:19:36.989Z,-5.06
2024-02-17T19:22:05.161Z,-5.06
2024-02-17T19:24:32.851Z,-5.07
2024-02-17T19:27:01.322Z,-5.07
2024-02-17T19:29:28.955Z,-5.07
2024-02-17T19:31:57.721Z,-5.09
2024-02-17T19:34:25.827Z,-5.09
2024-02-17T19:36:55.858Z,-5.10
2024-02-17T19:39:24.262Z,-5.10
2024-02-17T19:41:51.782Z,-5.11
2024-02-17T19:44:19.336Z,-5.12
2024-02-17T19:46:46.878Z,-5.15
2024-02-17T19:49:15.545Z,-5.15
2024-02-17T19:51:45.359Z,-5.18
2024-02-17T19:54:12.954Z,-5.21
2024-02-17T19:56:41.089Z,-5.23
2024-02-17T19:59:08.702Z,-5.26
2024-02-17T20:01:36.362Z,-5.28
2024-02-17T20:04:04.117Z,-5.28
2024-02-17T20:06:31.868Z,-5.27
2024-02-17T20:09:00.688Z,-5.26
2024-02-17T20:11:28.304Z,-5.23
2024-02-17T20:13:56.612Z,-5.25
2024-02-17T20:16:24.160Z,-5.25
2024-02-17T20:18:52.189Z,-5.25
2024-02-17T20:21:22.344Z,-5.23
2024-02-17T20:23:50.118Z,-5.22
2024-02-17T20:26:17.638Z,-5.24
2024-02-17T20:28:46.314Z,-5.24
2024-02-17T20:31:14.217Z,-5.26
2024-02-17T20:33:43.170Z,-5.29
2024-02-17T20:36:11.575Z,-5.33
2024-02-17T20:38:39.246Z,-5.37
2024-02-17T20:41:07.588Z,-5.40
2024-02-17T20:43:35.221Z,-5.45
2024-02-17T20:46:02.893Z,-5.49
2024-02-17T20:48:31.550Z,-5.53
2024-02-17T20:50:59.395Z,-5.56
2024-02-17T20:53:27.364Z,-5.56
2024-02-17T20:55:54.969Z,-5.54
2024-02-17T20:58:22.510Z,-5.53
2024-02-17T21:00:50.015Z,-5.51
2024-02-17T21:03:17.738Z,-5.46
2024-02-17T21:05:49.488Z,-5.41
2024-02-17T21:08:17.294Z,-5.34
2024-02-17T21:10:44.844Z,-5.31
2024-02-17T21:13:12.490Z,-5.27
2024-02-17T21:15:40.067Z,-5.22
2024-02-17T21:18:07.789Z,-5.18
2024-02-17T21:20:38.308Z,-5.17
2024-02-17T21:23:05.858Z,-5.17
2024-02-17T21:25:33.340Z,-5.16
2024-02-17T21:28:02.380Z,-5.18
2024-02-17T21:30:29.919Z,-5.22
2024-02-17T21:32:57.443Z,-5.28
2024-02-17T21:35:25.295Z,-5.33
2024-02-17T21:37:52.818Z,-5.37
2024-02-17T21:40:20.393Z,-5.41
2024-02-17T21:42:48.037Z,-5.46
2024-02-17T21:45:15.795Z,-5.51
2024-02-17T21:47:43.368Z,-5.57
2024-02-17T21:50:11.711Z,-5.61
2024-02-17T21:52:39.307Z,-5.62
2024-02-17T21:55:07.341Z,-5.59
2024-02-17T21:57:34.941Z,-5.58
2024-02-17T22:00:03.091Z,-5.55
2024-02-17T22:02:40.088Z,-5.51
2024-02-17T22:05:08.360Z,-5.45
2024-02-17T22:07:36.380Z,-5.37
2024-02-17T22:10:04.062Z,-5.28
2024-02-17T22:12:32.259Z,-5.21
2024-02-17T22:14:59.747Z,-5.17
2024-02-17T22:17:29.110Z,-5.13
2024-02-17T22:19:56.711Z,-5.10
2024-02-17T22:22:24.298Z,-5.10
2024-02-17T22:24:52.749Z,-5.12
2024-02-17T22:27:20.310Z,-5.16
2024-02-17T22:29:47.801Z,-5.20
2024-02-17T22:32:15.284Z,-5.26
2024-02-17T22:34:42.966Z,-5.34
2024-02-17T22:37:10.516Z,-5.40
2024-02-17T22:39:38.068Z,-5.49
2024-02-17T22:42:06.231Z,-5.57
2024-02-17T22:44:33.675Z,-5.64
2024-02-17T22:47:01.193Z,-5.70
2024-02-17T22:49:29.688Z,-5.74
2024-02-17T22:51:57.741Z,-5.79
2024-02-17T22:54:25.662Z,-5.83
2024-02-17T22:56:54.225Z,-5.85
2024-02-17T22:59:21.796Z,-5.86
2024-02-17T23:01:49.479Z,-5.86
2024-02-17T23:04:17.127Z,-5.82
2024-02-17T23:06:46.601Z,-5.77
2024-02-17T23:09:14.301Z,-5.70
2024-02-17T23:11:41.920Z,-5.61
2024-02-17T23:14:09.738Z,-5.51
2024-02-17T23:16:40.742Z,-5.40
2024-02-17T23:19:12.120Z,-5.28
2024-02-17T23:21:45.567Z,-5.15
2024-02-17T23:24:15.121Z,-5.02
2024-02-17T23:26:43.074Z,-4.93
2024-02-17T23:29:13.421Z,-4.83
2024-02-17T23:31:42.530Z,-4.76
2024-02-17T23:34:10.083Z,-4.70
2024-02-17T23:36:37.620Z,-4.63
2024-02-17T23:39:05.235Z,-4.58
2024-02-17T23:41:34.735Z,-4.55
2024-02-17T23:44:02.227Z,-4.51
2024-02-17T23:46:29.821Z,-4.50
2024-02-17T23:48:57.624Z,-4.50
2024-02-17T23:51:25.233Z,-4.51
2024-02-17T23:53:52.807Z,-4.56
2024-02-17T23:56:20.257Z,-4.61
2024-02-17T23:58:47.681Z,-4.66
